Time;durP1;ratioP1;P1;durP2;ratioP2;P2;SDS_P1;SDS_P2;PMS_P1;PMS_P2;Temp;Humidity;BMP_temperature;BMP_pressure;BME280_temperature;BME280_humidity;BME280_pressure;Samples;Min_cycle;Max_cycle;Signal;HPM_P1;HPM_P2
2023/12/28 00:00:07;;;;;;;;;;;;;;;15.52;52.46;102070.50;5077893;28;1106;-46
2023/12/28 00:02:32;;;;;;;;;;;;;;;17.11;48.89;102066.97;5063263;28;1139;-43
2023/12/28 00:04:58;;;;;;;;;;;;;;;17.22;48.36;102067.97;5066145;28;1206;-43
2023/12/28 00:07:24;;;;;;;;;;;;;;;16.38;50.71;102077.50;5062367;28;1030;-47
2023/12/28 00:09:49;;;;;;;;;;;;;;;15.89;51.69;102084.06;5066259;28;1079;-44
2023/12/28 00:12:15;;;;;;;;;;;;;;;15.73;52.29;102085.56;5077965;28;1054;-47
2023/12/28 00:14:40;;;;;;;;;;;;;;;16.56;50.59;102087.50;5077902;28;1972;-47
2023/12/28 00:17:06;;;;;;;;;;;;;;;17.49;47.87;102086.59;5076338;28;1083;-46
2023/12/28 00:19:31;;;;;;;;;;;;;;;16.47;50.32;102088.97;5061399;28;1108;-47
2023/12/28 00:21:57;;;;;;;;;;;;;;;15.97;51.47;102091.09;5070978;28;1000;-48
2023/12/28 00:24:23;;;;;;;;;;;;;;;15.77;51.80;102098.78;5076086;28;2629;-45
2023/12/28 00:26:48;;;;;;;;;;;;;;;15.55;52.51;102088.38;5075745;28;1214;-48
2023/12/28 00:29:14;;;;;;;;;;;;;;;16.89;49.58;102092.34;5057423;28;1087;-49
2023/12/28 00:31:40;;;;;;;;;;;;;;;17.48;47.64;102098.69;5060254;28;1128;-47
2023/12/28 00:34:06;;;;;;;;;;;;;;;16.53;50.37;102099.78;5065458;28;1902;-45
2023/12/28 00:36:31;;;;;;;;;;;;;;;16.01;51.47;102106.03;5059292;28;1054;-46
2023/12/28 00:38:57;;;;;;;;;;;;;;;15.79;51.94;102102.16;5077593;28;1015;-47
2023/12/28 00:41:22;;;;;;;;;;;;;;;15.59;52.21;102106.03;5077238;28;991;-47
2023/12/28 00:43:48;;;;;;;;;;;;;;;17.15;48.82;102101.09;5054240;28;1599;-45
2023/12/28 00:46:14;;;;;;;;;;;;;;;17.26;48.12;102100.22;5058832;28;1079;-44
2023/12/28 00:48:39;;;;;;;;;;;;;;;16.35;50.47;102095.28;5077564;28;1027;-45
2023/12/28 00:51:05;;;;;;;;;;;;;;;15.98;51.29;102092.78;5063964;28;1167;-45
2023/12/28 00:53:31;;;;;;;;;;;;;;;15.74;52.11;102103.69;5072731;28;2513;-44
2023/12/28 00:55:56;;;;;;;;;;;;;;;15.61;51.98;102094.84;5046047;28;1554;-46
2023/12/28 00:58:22;;;;;;;;;;;;;;;16.82;49.76;102107.28;5057441;28;1020;-46
2023/12/28 01:00:48;;;;;;;;;;;;;;;17.42;47.99;102090.34;5056897;28;1028;-44
2023/12/28 01:03:13;;;;;;;;;;;;;;;16.46;50.29;102103.75;5045826;28;1111;-42
2023/12/28 01:05:39;;;;;;;;;;;;;;;16.02;51.46;102104.09;5058585;28;1333;-47
2023/12/28 01:08:04;;;;;;;;;;;;;;;15.70;52.13;102104.41;5038486;28;1047;-42
2023/12/28 01:10:30;;;;;;;;;;;;;;;15.60;52.28;102096.75;5057131;28;1100;-48
2023/12/28 01:12:56;;;;;;;;;;;;;;;17.02;48.94;102102.22;5058483;28;1089;-44
2023/12/28 01:15:21;;;;;;;;;;;;;;;17.05;48.64;102095.41;5045318;28;1984;-47
2023/12/28 01:17:47;;;;;;;;;;;;;;;16.27;50.41;102098.41;5039309;28;1226;-45
2023/12/28 01:20:12;;;;;;;;;;;;;;;15.93;51.47;102094.56;5069685;28;829;-43
2023/12/28 01:22:38;;;;;;;;;;;;;;;15.65;51.96;102082.31;5072399;28;2356;-44
2023/12/28 01:25:04;;;;;;;;;;;;;;;15.86;51.88;102095.50;5052187;28;1214;-48
2023/12/28 01:27:29;;;;;;;;;;;;;;;17.37;48.10;102071.00;5056876;28;1056;-45
2023/12/28 01:29:55;;;;;;;;;;;;;;;17.02;48.58;102066.50;5069727;28;1151;-48
2023/12/28 01:32:21;;;;;;;;;;;;;;;16.23;50.62;102078.00;5068424;28;1039;-43
2023/12/28 01:34:46;;;;;;;;;;;;;;;15.88;51.39;102074.16;5076498;28;1917;-47
2023/12/28 01:37:12;;;;;;;;;;;;;;;15.80;51.60;102073.69;5057412;28;1112;-45
2023/12/28 01:39:39;;;;;;;;;;;;;;;16.74;49.89;102068.09;5062986;28;1238;-48
2023/12/28 01:42:04;;;;;;;;;;;;;;;17.10;48.32;102077.09;5056357;28;1055;-45
2023/12/28 01:44:30;;;;;;;;;;;;;;;16.19;50.80;102071.31;5069232;28;906;-44
2023/12/28 01:46:55;;;;;;;;;;;;;;;15.86;51.56;102073.56;5076405;28;1141;-46
2023/12/28 01:49:21;;;;;;;;;;;;;;;15.69;51.84;102073.38;5045463;28;1110;-45
2023/12/28 01:51:47;;;;;;;;;;;;;;;16.58;49.96;102074.38;5058003;28;1163;-44
2023/12/28 01:54:12;;;;;;;;;;;;;;;17.68;47.19;102074.28;5057571;28;2494;-47
2023/12/28 01:56:38;;;;;;;;;;;;;;;16.53;50.06;102077.81;5049414;28;1178;-46
2023/12/28 01:59:04;;;;;;;;;;;;;;;16.02;51.23;102074.78;5062650;28;1126;-46
2023/12/28 02:01:29;;;;;;;;;;;;;;;15.83;51.62;102084.19;5051790;28;1585;-44
2023/12/28 02:03:55;;;;;;;;;;;;;;;16.30;50.72;102069.63;5038294;28;1016;-44
2023/12/28 02:06:22;;;;;;;;;;;;;;;17.62;47.27;102072.53;5062290;28;1156;-47
2023/12/28 02:08:48;;;;;;;;;;;;;;;16.68;49.50;102079.25;5055733;28;1345;-44
2023/12/28 02:11:14;;;;;;;;;;;;;;;16.16;50.60;102071.78;5038030;28;1573;-46
2023/12/28 02:13:39;;;;;;;;;;;;;;;15.86;51.57;102087.28;5069170;28;1917;-47
2023/12/28 02:16:08;;;;;;;;;;;;;;;15.67;52.05;102083.75;5057845;28;1151;-45
2023/12/28 02:18:35;;;;;;;;;;;;;;;16.39;50.47;102090.16;5057757;28;1090;-44
2023/12/28 02:21:00;;;;;;;;;;;;;;;17.58;47.53;102094.19;5059480;28;880;-45
2023/12/28 02:23:26;;;;;;;;;;;;;;;16.56;49.78;102102.09;5040994;28;2381;-46
2023/12/28 02:25:52;;;;;;;;;;;;;;;16.04;51.04;102091.00;5040552;28;1624;-46
2023/12/28 02:28:17;;;;;;;;;;;;;;;15.76;51.71;102099.88;5075675;28;1075;-47
2023/12/28 02:30:43;;;;;;;;;;;;;;;15.59;51.88;102100.56;5075517;28;995;-48
2023/12/28 02:33:17;;;;;;;;;;;;;;;16.83;49.28;102104.28;5056936;28;1971;-47
2023/12/28 02:35:48;;;;;;;;;;;;;;;17.39;47.72;102101.00;5076067;28;1206;-47
2023/12/28 02:38:14;;;;;;;;;;;;;;;16.38;50.13;102108.53;5057443;28;1052;-47
2023/12/28 02:40:43;;;;;;;;;;;;;;;15.99;51.26;102110.91;5075677;28;1003;-44
2023/12/28 02:43:10;;;;;;;;;;;;;;;15.77;51.82;102110.63;5057154;28;1119;-46
2023/12/28 02:45:36;;;;;;;;;;;;;;;15.54;52.34;102114.13;5057408;28;1363;-45
2023/12/28 02:48:01;;;;;;;;;;;;;;;17.12;48.78;102103.50;5075804;28;1023;-43
2023/12/28 02:50:27;;;;;;;;;;;;;;;17.30;48.00;102108.00;5061565;28;1130;-46
2023/12/28 02:52:53;;;;;;;;;;;;;;;16.37;50.21;102106.03;5075135;28;1938;-47
2023/12/28 02:55:18;;;;;;;;;;;;;;;15.96;51.30;102105.88;5052636;28;1970;-45
2023/12/28 02:57:44;;;;;;;;;;;;;;;15.72;51.82;102111.34;5074312;28;935;-43
2023/12/28 03:00:10;;;;;;;;;;;;;;;15.54;52.22;102108.63;5070626;28;1000;-48
2023/12/28 03:02:37;;;;;;;;;;;;;;;16.65;49.72;102097.03;5043209;28;1020;-44
2023/12/28 03:05:03;;;;;;;;;;;;;;;17.75;46.95;102087.88;5060897;28;1063;-44
2023/12/28 03:07:29;;;;;;;;;;;;;;;16.66;49.26;102097.88;5079046;28;1223;-46
2023/12/28 03:09:54;;;;;;;;;;;;;;;16.13;50.77;102091.47;5078856;28;1122;-46
2023/12/28 03:12:20;;;;;;;;;;;;;;;15.85;51.25;102104.81;5079592;28;1094;-47
2023/12/28 03:14:46;;;;;;;;;;;;;;;15.69;51.71;102098.06;5078730;28;2001;-45
2023/12/28 03:17:12;;;;;;;;;;;;;;;17.28;48.13;102105.47;5078861;28;1082;-46
2023/12/28 03:19:37;;;;;;;;;;;;;;;17.05;48.19;102107.22;5078771;28;1027;-49
2023/12/28 03:22:03;;;;;;;;;;;;;;;16.32;50.12;102103.19;5060881;28;1596;-42
2023/12/28 03:24:28;;;;;;;;;;;;;;;16.00;51.05;102107.09;5078029;28;2677;-46
2023/12/28 03:26:54;;;;;;;;;;;;;;;15.65;51.95;102105.09;5063398;28;1139;-47
2023/12/28 03:29:20;;;;;;;;;;;;;;;15.52;51.95;102100.66;5067483;28;1032;-47
2023/12/28 03:31:45;;;;;;;;;;;;;;;16.56;49.72;102103.97;5059024;28;1374;-46
2023/12/28 03:34:11;;;;;;;;;;;;;;;17.69;47.08;102097.97;5067348;28;1963;-45
2023/12/28 03:36:36;;;;;;;;;;;;;;;16.59;49.56;102103.50;5059796;28;1087;-45
2023/12/28 03:39:03;;;;;;;;;;;;;;;16.01;51.11;102092.31;5060787;28;1167;-45
2023/12/28 03:41:29;;;;;;;;;;;;;;;15.82;51.45;102098.97;5061126;28;1075;-44
2023/12/28 03:43:55;;;;;;;;;;;;;;;16.03;51.18;102103.03;5076316;28;996;-46
2023/12/28 03:46:20;;;;;;;;;;;;;;;17.51;47.28;102090.75;5073404;28;1083;-49
2023/12/28 03:48:47;;;;;;;;;;;;;;;16.64;49.41;102097.28;5078089;28;1098;-46
2023/12/28 03:51:15;;;;;;;;;;;;;;;16.17;50.51;102096.25;5078443;28;1161;-48
2023/12/28 03:53:44;;;;;;;;;;;;;;;15.78;51.50;102098.59;5060313;28;2805;-43
2023/12/28 03:56:20;;;;;;;;;;;;;;;15.69;51.86;102106.28;5077880;28;999;-49
2023/12/28 03:58:46;;;;;;;;;;;;;;;17.36;47.94;102102.34;5078560;28;1107;-43
2023/12/28 04:01:11;;;;;;;;;;;;;;;16.99;48.40;102096.41;5059844;28;1083;-45
2023/12/28 04:03:37;;;;;;;;;;;;;;;16.20;50.21;102090.28;5061187;28;975;-45
2023/12/28 04:06:04;;;;;;;;;;;;;;;15.94;50.99;102104.47;5058517;28;1043;-46
2023/12/28 04:08:30;;;;;;;;;;;;;;;15.70;51.68;102091.53;5057832;28;1091;-47
2023/12/28 04:10:56;;;;;;;;;;;;;;;16.11;50.76;102085.41;5071623;28;1035;-46
2023/12/28 04:13:22;;;;;;;;;;;;;;;17.52;47.07;102080.63;5068497;28;1906;-43
2023/12/28 04:15:47;;;;;;;;;;;;;;;16.82;48.80;102082.56;5064528;28;1024;-45
2023/12/28 04:18:13;;;;;;;;;;;;;;;16.20;50.54;102089.44;5058852;28;1299;-45
2023/12/28 04:20:38;;;;;;;;;;;;;;;15.85;51.27;102087.50;5053991;28;1003;-45
2023/12/28 04:23:04;;;;;;;;;;;;;;;15.65;51.65;102085.91;5047128;28;1927;-46
2023/12/28 04:25:30;;;;;;;;;;;;;;;16.33;50.40;102086.47;5057930;28;1211;-47
2023/12/28 04:27:55;;;;;;;;;;;;;;;17.62;46.79;102086.28;5053241;28;1123;-48
2023/12/28 04:30:21;;;;;;;;;;;;;;;16.80;48.84;102088.28;5048064;28;1114;-46
2023/12/28 04:32:47;;;;;;;;;;;;;;;16.15;50.50;102081.09;5072894;28;1105;-48
2023/12/28 04:35:12;;;;;;;;;;;;;;;15.87;51.18;102069.75;5051668;28;1909;-45
2023/12/28 04:37:38;;;;;;;;;;;;;;;15.72;51.47;102083.91;5038167;28;1517;-46
2023/12/28 04:40:04;;;;;;;;;;;;;;;16.49;49.81;102076.66;5059433;28;1663;-45
2023/12/28 04:42:29;;;;;;;;;;;;;;;17.69;46.77;102075.94;5059596;28;1119;-48
2023/12/28 04:44:55;;;;;;;;;;;;;;;16.74;48.93;102079.09;5073669;28;1039;-46
2023/12/28 04:47:20;;;;;;;;;;;;;;;16.13;50.36;102080.50;5059453;28;1114;-46
2023/12/28 04:49:46;;;;;;;;;;;;;;;15.78;51.09;102086.75;5046177;28;1211;-46
2023/12/28 04:52:12;;;;;;;;;;;;;;;15.67;51.45;102092.00;5067788;28;1935;-51
2023/12/28 04:54:40;;;;;;;;;;;;;;;17.27;47.81;102087.31;5076845;28;1984;-50
2023/12/28 04:57:08;;;;;;;;;;;;;;;17.09;48.03;102085.59;5055590;28;1288;-49
2023/12/28 04:59:43;;;;;;;;;;;;;;;16.29;49.96;102081.69;5075883;28;1038;-47
2023/12/28 05:02:08;;;;;;;;;;;;;;;15.92;50.90;102085.47;5058045;28;1146;-46
2023/12/28 05:04:38;;;;;;;;;;;;;;;15.72;51.19;102081.16;5076043;28;1186;-47
2023/12/28 05:07:03;;;;;;;;;;;;;;;15.52;51.88;102080.63;5064233;28;1175;-50
2023/12/28 05:09:29;;;;;;;;;;;;;;;17.03;48.45;102076.41;5070611;28;1218;-50
2023/12/28 05:11:55;;;;;;;;;;;;;;;17.41;47.23;102076.84;5075768;28;988;-51
2023/12/28 05:14:20;;;;;;;;;;;;;;;16.38;50.01;102083.84;5076513;28;1930;-44
2023/12/28 05:16:47;;;;;;;;;;;;;;;16.01;50.81;102086.81;5059202;28;1068;-47
2023/12/28 05:19:13;;;;;;;;;;;;;;;15.71;51.19;102089.59;5063335;28;1087;-50
2023/12/28 05:21:38;;;;;;;;;;;;;;;15.44;52.08;102086.44;5074875;28;1186;-46
2023/12/28 05:24:04;;;;;;;;;;;;;;;16.99;48.46;102074.41;5071170;28;1832;-45
2023/12/28 05:26:30;;;;;;;;;;;;;;;17.02;48.37;102071.16;5068475;28;1024;-43
2023/12/28 05:28:55;;;;;;;;;;;;;;;16.23;49.41;102069.78;5074567;28;1104;-47
2023/12/28 05:31:21;;;;;;;;;;;;;;;15.90;48.95;102084.91;5076617;28;1070;-49
2023/12/28 05:33:46;;;;;;;;;;;;;;;16.94;48.92;102088.88;5070205;28;1905;-43
2023/12/28 05:36:12;;;;;;;;;;;;;;;16.48;49.59;102085.97;5076184;28;1082;-45
2023/12/28 05:38:38;;;;;;;;;;;;;;;16.05;48.85;102088.00;5076659;28;1174;-46
2023/12/28 05:41:03;;;;;;;;;;;;;;;17.35;48.17;102080.56;5076216;28;1012;-47
2023/12/28 05:43:29;;;;;;;;;;;;;;;16.36;49.29;102094.22;5076054;28;1067;-44
2023/12/28 05:45:54;;;;;;;;;;;;;;;16.55;49.72;102085.81;5075696;28;1079;-45
2023/12/28 05:48:20;;;;;;;;;;;;;;;17.05;48.40;102085.25;5062962;28;1082;-46
2023/12/28 05:50:45;;;;;;;;;;;;;;;16.35;49.02;102091.72;5065409;28;1135;-44
2023/12/28 05:53:13;;;;;;;;;;;;;;;17.20;48.45;102101.19;5073601;28;2262;-44
2023/12/28 05:55:40;;;;;;;;;;;;;;;16.64;49.18;102106.34;5075968;28;1906;-44
2023/12/28 05:58:05;;;;;;;;;;;;;;;16.60;49.34;102105.16;5068622;28;1143;-47
2023/12/28 06:00:31;;;;;;;;;;;;;;;17.47;47.67;102092.34;5064702;28;1103;-47
2023/12/28 06:02:57;;;;;;;;;;;;;;;16.49;49.03;102100.53;5061298;28;1156;-47
2023/12/28 06:05:22;;;;;;;;;;;;;;;16.59;49.05;102104.34;5064147;28;1179;-45
2023/12/28 06:07:48;;;;;;;;;;;;;;;17.73;47.39;102106.56;5069056;28;1093;-48
2023/12/28 06:10:13;;;;;;;;;;;;;;;16.66;48.81;102112.47;5055597;28;1111;-45
2023/12/28 06:12:39;;;;;;;;;;;;;;;16.37;47.87;102104.13;5075019;28;1100;-51
2023/12/28 06:15:05;;;;;;;;;;;;;;;17.28;48.21;102097.25;5064132;28;1901;-47
2023/12/28 06:17:30;;;;;;;;;;;;;;;16.47;48.79;102102.69;5074847;28;1032;-51
2023/12/28 06:19:56;;;;;;;;;;;;;;;17.43;48.12;102104.91;5076082;28;1090;-48
2023/12/28 06:22:22;;;;;;;;;;;;;;;17.14;48.16;102101.34;5061542;28;1828;-49
2023/12/28 06:24:47;;;;;;;;;;;;;;;16.47;48.40;102105.44;5075384;28;1055;-45
2023/12/28 06:27:13;;;;;;;;;;;;;;;18.02;46.88;102109.25;5070932;28;1007;-48
2023/12/28 06:29:39;;;;;;;;;;;;;;;16.87;48.62;102101.88;5067425;28;1098;-49
2023/12/28 06:32:04;;;;;;;;;;;;;;;16.57;48.17;102095.50;5075918;28;1024;-45
2023/12/28 06:34:30;;;;;;;;;;;;;;;17.02;48.74;102091.22;5074853;28;1906;-43
2023/12/28 06:36:55;;;;;;;;;;;;;;;17.41;48.23;102091.41;5071652;28;1012;-46
2023/12/28 06:39:21;;;;;;;;;;;;;;;16.71;48.43;102106.22;5066282;28;996;-47
2023/12/28 06:41:48;;;;;;;;;;;;;;;16.43;47.69;102094.91;5075718;28;980;-47
2023/12/28 06:44:14;;;;;;;;;;;;;;;17.68;47.57;102104.53;5075739;28;1171;-47
2023/12/28 06:46:40;;;;;;;;;;;;;;;16.84;48.41;102105.13;5066231;28;1067;-43
2023/12/28 06:49:06;;;;;;;;;;;;;;;16.47;47.96;102095.28;5075878;28;1186;-45
2023/12/28 06:51:31;;;;;;;;;;;;;;;17.42;48.17;102090.34;5075881;28;1195;-46
2023/12/28 06:53:57;;;;;;;;;;;;;;;16.65;48.79;102099.78;5075576;28;2712;-47
2023/12/28 06:56:22;;;;;;;;;;;;;;;16.42;47.81;102106.13;5062085;28;1015;-44
2023/12/28 06:58:48;;;;;;;;;;;;;;;16.82;48.60;102096.31;5062252;28;1009;-47
2023/12/28 07:01:14;;;;;;;;;;;;;;;16.80;48.93;102095.69;5060560;28;1079;-49
2023/12/28 07:03:40;;;;;;;;;;;;;;;16.54;48.55;102100.66;5076015;28;1019;-46
2023/12/28 07:06:05;;;;;;;;;;;;;;;17.92;47.12;102099.75;5075334;28;1035;-44
2023/12/28 07:08:31;;;;;;;;;;;;;;;16.80;48.78;102101.19;5075039;28;1192;-44
2023/12/28 07:10:57;;;;;;;;;;;;;;;16.45;48.17;102097.41;5062342;28;1044;-45
2023/12/28 07:13:22;;;;;;;;;;;;;;;16.42;48.00;102098.75;5075310;28;1906;-45
2023/12/28 07:15:48;;;;;;;;;;;;;;;17.88;47.53;102083.94;5056989;28;1127;-45
2023/12/28 07:18:14;;;;;;;;;;;;;;;16.84;48.37;102083.13;5067143;28;1021;-44
2023/12/28 07:20:39;;;;;;;;;;;;;;;16.43;48.01;102083.94;5075277;28;1154;-48
2023/12/28 07:23:05;;;;;;;;;;;;;;;16.29;47.31;102093.50;5074092;28;1856;-47
2023/12/28 07:25:31;;;;;;;;;;;;;;;17.16;48.41;102100.03;5075143;28;1040;-42
2023/12/28 07:27:56;;;;;;;;;;;;;;;17.27;48.43;102106.56;5072934;28;1074;-45
2023/12/28 07:30:22;;;;;;;;;;;;;;;16.65;48.63;102102.53;5068987;28;1119;-44
2023/12/28 07:32:47;;;;;;;;;;;;;;;16.84;48.54;102100.44;5075285;28;1103;-44
2023/12/28 07:35:13;;;;;;;;;;;;;;;17.48;47.98;102098.69;5067309;28;1910;-44
2023/12/28 07:37:39;;;;;;;;;;;;;;;16.72;48.72;102103.25;5078007;28;1139;-42
2023/12/28 07:40:05;;;;;;;;;;;;;;;16.54;47.71;102108.88;5061994;28;1015;-48
2023/12/28 07:42:30;;;;;;;;;;;;;;;17.78;47.46;102099.22;5069886;28;1057;-44
2023/12/28 07:44:56;;;;;;;;;;;;;;;16.99;48.63;102108.22;5059466;28;1062;-42
2023/12/28 07:47:22;;;;;;;;;;;;;;;16.70;47.93;102105.38;5062298;28;896;-45
2023/12/28 07:49:47;;;;;;;;;;;;;;;16.41;47.37;102110.81;5074909;28;1015;-46
2023/12/28 07:52:13;;;;;;;;;;;;;;;17.31;48.16;102105.00;5077696;28;2250;-46
2023/12/28 07:54:38;;;;;;;;;;;;;;;16.84;48.63;102105.94;5070701;28;1985;-44
2023/12/28 07:57:04;;;;;;;;;;;;;;;16.52;47.99;102105.53;5058641;28;1170;-44
2023/12/28 07:59:29;;;;;;;;;;;;;;;17.50;48.00;102113.03;5070246;28;1160;-48
2023/12/28 08:01:55;;;;;;;;;;;;;;;17.07;48.48;102112.50;5068917;28;1016;-48
2023/12/28 08:04:21;;;;;;;;;;;;;;;16.56;48.19;102118.56;5075158;28;1062;-42
2023/12/28 08:06:46;;;;;;;;;;;;;;;17.81;47.58;102119.06;5058515;28;1230;-46
2023/12/28 08:09:12;;;;;;;;;;;;;;;17.08;48.57;102112.25;5058274;28;1147;-45
2023/12/28 08:11:38;;;;;;;;;;;;;;;16.68;48.18;102113.03;5067993;28;865;-45
2023/12/28 08:14:03;;;;;;;;;;;;;;;17.15;48.46;102114.00;5064618;28;1941;-44
2023/12/28 08:16:29;;;;;;;;;;;;;;;17.51;48.12;102114.69;5068523;28;1155;-45
2023/12/28 08:18:54;;;;;;;;;;;;;;;16.79;48.54;102110.50;5074523;28;1020;-41
2023/12/28 08:21:20;;;;;;;;;;;;;;;16.50;47.75;102096.72;5078077;28;1210;-43
2023/12/28 08:23:45;;;;;;;;;;;;;;;16.39;47.64;102095.66;5075335;28;2464;-45
2023/12/28 08:26:11;;;;;;;;;;;;;;;17.89;47.39;102099.38;5077795;28;1039;-47
2023/12/28 08:28:37;;;;;;;;;;;;;;;16.96;48.36;102097.72;5075222;28;1420;-42
2023/12/28 08:31:02;;;;;;;;;;;;;;;16.82;49.06;102105.38;5066969;28;1039;-46
2023/12/28 08:33:28;;;;;;;;;;;;;;;17.26;48.23;102097.50;5077715;28;1905;-47
2023/12/28 08:35:54;;;;;;;;;;;;;;;16.67;48.58;102105.03;5068334;28;959;-45
2023/12/28 08:38:19;;;;;;;;;;;;;;;16.64;48.13;102092.63;5060401;28;1118;-45
2023/12/28 08:40:45;;;;;;;;;;;;;;;18.07;46.82;102090.91;5077520;28;1100;-46
2023/12/28 08:43:11;;;;;;;;;;;;;;;17.01;48.46;102085.97;5077288;28;1193;-45
2023/12/28 08:45:36;;;;;;;;;;;;;;;16.66;48.00;102095.13;5059497;28;1064;-46
2023/12/28 08:48:02;;;;;;;;;;;;;;;16.34;47.72;102068.91;5076185;28;930;-47
2023/12/28 08:50:28;;;;;;;;;;;;;;;16.56;48.23;102082.00;5078001;28;1047;-43
2023/12/28 08:52:53;;;;;;;;;;;;;;;17.43;48.13;102078.28;5076220;28;2535;-43
2023/12/28 08:55:19;;;;;;;;;;;;;;;16.57;48.54;102079.03;5077484;28;1909;-42
2023/12/28 08:57:45;;;;;;;;;;;;;;;17.41;48.30;102069.41;5064138;28;1159;-45
2023/12/28 09:00:11;;;;;;;;;;;;;;;17.17;48.61;102060.47;5067783;28;882;-47
2023/12/28 09:02:37;;;;;;;;;;;;;;;16.76;48.08;102049.50;5073900;28;1080;-46
2023/12/28 09:05:02;;;;;;;;;;;;;;;16.46;47.51;102046.09;5077538;28;1075;-45
2023/12/28 09:07:28;;;;;;;;;;;;;;;17.75;47.67;102038.34;5077388;28;1129;-43
2023/12/28 09:09:54;;;;;;;;;;;;;;;17.20;48.44;102042.66;5064990;28;1123;-44
2023/12/28 09:12:19;;;;;;;;;;;;;;;16.70;48.36;102044.13;5077132;28;869;-49
2023/12/28 09:14:45;;;;;;;;;;;;;;;17.18;48.53;102044.78;5064422;28;1909;-45
2023/12/28 09:17:11;;;;;;;;;;;;;;;17.33;48.34;102030.50;5064101;28;1059;-46
2023/12/28 09:19:36;;;;;;;;;;;;;;;16.80;48.26;102027.03;5057859;28;1044;-45
2023/12/28 09:22:03;;;;;;;;;;;;;;;16.58;47.69;102028.53;5057342;28;1202;-42
2023/12/28 09:24:28;;;;;;;;;;;;;;;17.89;47.05;102017.69;5074901;28;853;-44
2023/12/28 09:26:54;;;;;;;;;;;;;;;16.95;48.30;102018.28;5077165;28;1110;-48
2023/12/28 09:29:19;;;;;;;;;;;;;;;16.65;47.99;102003.66;5077288;28;1055;-43
2023/12/28 09:31:45;;;;;;;;;;;;;;;16.47;47.18;102009.34;5076955;28;1082;-44
2023/12/28 09:34:11;;;;;;;;;;;;;;;16.74;48.00;101995.88;5057346;28;1973;-44
2023/12/28 09:36:37;;;;;;;;;;;;;;;16.91;48.36;101993.19;5068932;28;862;-46
2023/12/28 09:39:03;;;;;;;;;;;;;;;17.17;48.54;101994.50;5057126;28;1043;-44
2023/12/28 09:41:30;;;;;;;;;;;;;;;18.40;46.28;101984.53;5071541;28;1098;-48
2023/12/28 09:44:01;;;;;;;;;;;;;;;17.20;48.10;101972.00;5051027;28;1274;-44
2023/12/28 09:46:26;;;;;;;;;;;;;;;16.83;47.61;101968.84;5038931;28;1047;-42
2023/12/28 09:48:53;;;;;;;;;;;;;;;16.59;47.19;101966.19;5047737;28;972;-46
2023/12/28 09:51:19;;;;;;;;;;;;;;;17.71;47.91;101963.75;5074281;28;1087;-46
2023/12/28 09:53:45;;;;;;;;;;;;;;;17.01;48.47;101952.19;5048209;28;1968;-48
2023/12/28 09:56:11;;;;;;;;;;;;;;;16.68;48.16;101959.22;5076956;28;1099;-46
2023/12/28 09:58:37;;;;;;;;;;;;;;;17.05;48.37;101953.31;5067200;28;1261;-44
2023/12/28 10:01:02;;;;;;;;;;;;;;;17.80;47.36;101950.41;5058384;28;1028;-43
2023/12/28 10:03:28;;;;;;;;;;;;;;;16.86;48.48;101949.97;5050320;28;1099;-45
2023/12/28 10:05:54;;;;;;;;;;;;;;;16.60;48.13;101948.63;5058229;28;1059;-43
2023/12/28 10:08:19;;;;;;;;;;;;;;;16.49;47.05;101949.53;5076063;28;1098;-44
2023/12/28 10:10:50;;;;;;;;;;;;;;;16.92;47.76;101945.41;5061873;28;1153;-43
2023/12/28 10:13:16;;;;;;;;;;;;;;;17.71;47.69;101940.91;5065891;28;1080;-44
2023/12/28 10:15:43;;;;;;;;;;;;;;;16.86;48.46;101938.97;5076349;28;1909;-46
2023/12/28 10:18:08;;;;;;;;;;;;;;;16.65;47.57;101932.28;5049852;28;1070;-46
2023/12/28 10:20:34;;;;;;;;;;;;;;;16.48;46.99;101928.63;5070220;28;1086;-46
2023/12/28 10:23:00;;;;;;;;;;;;;;;17.73;47.63;101928.56;5063278;28;1179;-47
2023/12/28 10:25:26;;;;;;;;;;;;;;;16.95;48.47;101919.38;5058604;28;1087;-47
2023/12/28 10:27:52;;;;;;;;;;;;;;;16.60;48.06;101916.50;5076218;28;1016;-44
2023/12/28 10:30:18;;;;;;;;;;;;;;;17.83;47.45;101919.63;5076392;28;1063;-48
2023/12/28 10:32:43;;;;;;;;;;;;;;;17.00;48.50;101913.94;5058400;28;1358;-48
2023/12/28 10:35:09;;;;;;;;;;;;;;;16.67;47.83;101910.88;5075561;28;1968;-47
2023/12/28 10:37:34;;;;;;;;;;;;;;;16.73;48.29;101907.16;5049380;28;1096;-43
2023/12/28 10:40:00;;;;;;;;;;;;;;;17.21;48.34;101901.41;5041010;28;1079;-45
2023/12/28 10:42:31;;;;;;;;;;;;;;;16.68;48.33;101898.00;5058065;28;1060;-48
2023/12/28 10:45:00;;;;;;;;;;;;;;;16.47;47.43;101891.28;5061940;28;1087;-44
2023/12/28 10:47:26;;;;;;;;;;;;;;;17.71;47.57;101899.63;5042082;28;1156;-46
2023/12/28 10:49:53;;;;;;;;;;;;;;;16.86;48.46;101894.19;5056338;28;1000;-44
2023/12/28 10:52:18;;;;;;;;;;;;;;;16.61;47.80;101892.66;5030619;28;1072;-45
2023/12/28 10:54:44;;;;;;;;;;;;;;;17.53;47.90;101884.25;5053506;28;1987;-46
2023/12/28 10:57:12;;;;;;;;;;;;;;;16.76;48.84;101884.69;5075815;28;1055;-46
2023/12/28 11:00:00;;;;;;;;;;;;;;;16.86;48.39;101883.19;5060237;28;1093;-45
2023/12/28 11:02:28;;;;;;;;;;;;;;;17.26;48.00;101876.72;5061377;28;1087;-43
2023/12/28 11:04:54;;;;;;;;;;;;;;;16.77;47.97;101864.38;5064338;28;1083;-45
2023/12/28 11:07:19;;;;;;;;;;;;;;;17.19;48.14;101862.31;5054368;28;1083;-42
2023/12/28 11:09:45;;;;;;;;;;;;;;;17.18;48.31;101855.16;5057494;28;1035;-45
2023/12/28 11:12:11;;;;;;;;;;;;;;;16.67;48.11;101853.19;5050915;28;1123;-46
2023/12/28 11:14:39;;;;;;;;;;;;;;;16.82;48.35;101860.06;5043407;28;1968;-43
2023/12/28 11:17:05;;;;;;;;;;;;;;;17.44;48.00;101857.19;5046343;28;1083;-48
2023/12/28 11:19:31;;;;;;;;;;;;;;;16.73;48.35;101851.38;5052419;28;1083;-44
2023/12/28 11:21:59;;;;;;;;;;;;;;;16.53;47.44;101849.94;5054047;28;1150;-42
2023/12/28 11:24:26;;;;;;;;;;;;;;;17.34;48.13;101846.06;5059387;28;841;-43
2023/12/28 11:26:52;;;;;;;;;;;;;;;16.79;48.04;101839.41;5044846;28;1170;-46
2023/12/28 11:29:18;;;;;;;;;;;;;;;16.70;48.43;101841.72;5051859;28;1047;-43
2023/12/28 11:31:44;;;;;;;;;;;;;;;17.88;47.12;101839.91;5053380;28;1082;-45
2023/12/28 11:34:11;;;;;;;;;;;;;;;17.00;48.42;101834.25;5047151;28;1913;-44
2023/12/28 11:36:38;;;;;;;;;;;;;;;16.67;47.58;101830.41;5057697;28;1374;-44
2023/12/28 11:39:06;;;;;;;;;;;;;;;16.60;46.84;101828.63;5058216;28;1226;-49
2023/12/28 11:41:32;;;;;;;;;;;;;;;17.66;47.62;101826.16;5047014;28;1066;-42
2023/12/28 11:44:01;;;;;;;;;;;;;;;16.85;48.55;101821.91;5046407;28;1381;-47
2023/12/28 11:46:28;;;;;;;;;;;;;;;16.56;47.69;101821.16;5058803;28;1035;-45
2023/12/28 11:49:02;;;;;;;;;;;;;;;17.75;47.25;101818.28;5057200;28;829;-44
2023/12/28 11:51:28;;;;;;;;;;;;;;;16.88;48.32;101820.59;5058940;28;1123;-43
2023/12/28 11:53:53;;;;;;;;;;;;;;;16.47;48.03;101806.19;5058745;28;1897;-47
2023/12/28 11:56:19;;;;;;;;;;;;;;;17.86;47.41;101803.53;5057857;28;1296;-45
2023/12/28 11:58:46;;;;;;;;;;;;;;;17.05;48.22;101804.94;5047602;28;1395;-48
2023/12/28 12:01:12;;;;;;;;;;;;;;;16.70;47.92;101803.25;5052350;28;983;-46
2023/12/28 12:03:38;;;;;;;;;;;;;;;16.51;47.12;101799.94;5045903;28;1178;-44
2023/12/28 12:06:04;;;;;;;;;;;;;;;16.51;47.52;101793.59;5042191;28;1272;-45
2023/12/28 12:08:29;;;;;;;;;;;;;;;17.51;47.84;101781.94;5065797;28;1538;-46
2023/12/28 12:11:03;;;;;;;;;;;;;;;16.74;48.41;101782.44;5065055;28;1062;-48
2023/12/28 12:13:30;;;;;;;;;;;;;;;17.64;48.02;101784.28;5060524;28;916;-47
2023/12/28 12:15:56;;;;;;;;;;;;;;;17.26;48.33;101770.38;5078166;28;1071;-48
2023/12/28 12:18:22;;;;;;;;;;;;;;;16.87;48.15;101772.22;5078419;28;1102;-46
2023/12/28 12:20:47;;;;;;;;;;;;;;;16.68;47.66;101772.47;5063541;28;1366;-48
2023/12/28 12:23:13;;;;;;;;;;;;;;;17.64;47.62;101762.28;5078470;28;1043;-42
2023/12/28 12:25:39;;;;;;;;;;;;;;;16.88;48.46;101755.50;5044634;28;1177;-46
2023/12/28 12:28:04;;;;;;;;;;;;;;;16.65;48.03;101762.00;5050500;28;1397;-45
2023/12/28 12:30:30;;;;;;;;;;;;;;;17.40;47.97;101748.84;5077941;28;1218;-46
2023/12/28 12:32:55;;;;;;;;;;;;;;;16.83;48.15;101743.59;5070858;28;1154;-45
2023/12/28 12:35:21;;;;;;;;;;;;;;;16.61;47.49;101749.84;5072314;28;1973;-46
2023/12/28 12:37:49;;;;;;;;;;;;;;;16.92;47.96;101744.84;5072760;28;946;-46
2023/12/28 12:40:15;;;;;;;;;;;;;;;17.17;48.19;101746.31;5073266;28;1059;-47